sensor_id;sensor_type;location;lat;lon;timestamp;P1;durP1;ratioP1;P2;durP2;ratioP2
4726;SDS011;2377;51.734;8.950;2024-03-02T00:01:41;9.10;;;7.53;;
4726;SDS011;2377;51.734;8.950;2024-03-02T00:04:08;9.97;;;7.60;;
4726;SDS011;2377;51.734;8.950;2024-03-02T00:06:36;13.90;;;9.20;;
4726;SDS011;2377;51.734;8.950;2024-03-02T00:09:03;9.77;;;7.83;;
4726;SDS011;2377;51.734;8.950;2024-03-02T00:11:33;8.27;;;7.17;;
4726;SDS011;2377;51.734;8.950;2024-03-02T00:14:02;10.20;;;7.30;;
4726;SDS011;2377;51.734;8.950;2024-03-02T00:16:31;6.97;;;6.27;;
4726;SDS011;2377;51.734;8.950;2024-03-02T00:19:00;10.00;;;7.77;;
4726;SDS011;2377;51.734;8.950;2024-03-02T00:21:31;9.60;;;6.90;;
4726;SDS011;2377;51.734;8.950;2024-03-02T00:24:01;9.20;;;7.47;;
4726;SDS011;2377;51.734;8.950;2024-03-02T00:26:46;11.13;;;8.27;;
4726;SDS011;2377;51.734;8.950;2024-03-02T00:29:14;9.83;;;7.30;;
4726;SDS011;2377;51.734;8.950;2024-03-02T00:31:47;10.33;;;7.80;;
4726;SDS011;2377;51.734;8.950;2024-03-02T00:34:14;8.50;;;6.70;;
4726;SDS011;2377;51.734;8.950;2024-03-02T00:36:43;8.60;;;6.90;;
4726;SDS011;2377;51.734;8.950;2024-03-02T00:39:12;11.27;;;7.17;;
4726;SDS011;2377;51.734;8.950;2024-03-02T00:41:42;7.50;;;6.30;;
4726;SDS011;2377;51.734;8.950;2024-03-02T00:44:09;10.33;;;8.17;;
4726;SDS011;2377;51.734;8.950;2024-03-02T00:46:39;9.63;;;7.60;;
4726;SDS011;2377;51.734;8.950;2024-03-02T00:49:14;9.40;;;7.17;;
4726;SDS011;2377;51.734;8.950;2024-03-02T00:51:47;9.80;;;7.77;;
4726;SDS011;2377;51.734;8.950;2024-03-02T00:54:18;9.33;;;7.47;;
4726;SDS011;2377;51.734;8.950;2024-03-02T00:56:49;15.57;;;8.43;;
4726;SDS011;2377;51.734;8.950;2024-03-02T00:59:17;11.90;;;8.70;;
4726;SDS011;2377;51.734;8.950;2024-03-02T01:01:47;9.07;;;7.30;;
4726;SDS011;2377;51.734;8.950;2024-03-02T01:04:15;9.80;;;7.60;;
4726;SDS011;2377;51.734;8.950;2024-03-02T01:06:43;10.77;;;7.83;;
4726;SDS011;2377;51.734;8.950;2024-03-02T01:09:11;9.87;;;7.70;;
4726;SDS011;2377;51.734;8.950;2024-03-02T01:11:38;12.23;;;8.80;;
4726;SDS011;2377;51.734;8.950;2024-03-02T01:14:07;10.60;;;8.20;;
4726;SDS011;2377;51.734;8.950;2024-03-02T01:16:35;11.07;;;8.20;;
4726;SDS011;2377;51.734;8.950;2024-03-02T01:19:02;15.50;;;9.60;;
4726;SDS011;2377;51.734;8.950;2024-03-02T01:21:30;11.00;;;8.40;;
4726;SDS011;2377;51.734;8.950;2024-03-02T01:23:59;10.77;;;8.00;;
4726;SDS011;2377;51.734;8.950;2024-03-02T01:26:28;16.80;;;8.53;;
4726;SDS011;2377;51.734;8.950;2024-03-02T01:28:55;10.50;;;8.50;;
4726;SDS011;2377;51.734;8.950;2024-03-02T01:31:23;13.03;;;8.43;;
4726;SDS011;2377;51.734;8.950;2024-03-02T01:33:52;12.70;;;8.33;;
4726;SDS011;2377;51.734;8.950;2024-03-02T01:36:20;9.87;;;7.70;;
4726;SDS011;2377;51.734;8.950;2024-03-02T01:38:48;10.90;;;8.60;;
4726;SDS011;2377;51.734;8.950;2024-03-02T01:41:15;13.20;;;9.97;;
4726;SDS011;2377;51.734;8.950;2024-03-02T01:43:45;14.03;;;10.37;;
4726;SDS011;2377;51.734;8.950;2024-03-02T01:46:13;12.17;;;8.93;;
4726;SDS011;2377;51.734;8.950;2024-03-02T01:48:40;12.70;;;8.90;;
4726;SDS011;2377;51.734;8.950;2024-03-02T01:51:07;13.50;;;9.13;;
4726;SDS011;2377;51.734;8.950;2024-03-02T01:53:35;14.60;;;9.97;;
4726;SDS011;2377;51.734;8.950;2024-03-02T01:56:05;12.20;;;9.23;;
4726;SDS011;2377;51.734;8.950;2024-03-02T01:58:32;14.70;;;10.80;;
4726;SDS011;2377;51.734;8.950;2024-03-02T02:00:59;12.77;;;10.10;;
4726;SDS011;2377;51.734;8.950;2024-03-02T02:03:27;17.43;;;10.37;;
4726;SDS011;2377;51.734;8.950;2024-03-02T02:05:54;15.43;;;10.83;;
4726;SDS011;2377;51.734;8.950;2024-03-02T02:08:24;15.80;;;11.27;;
4726;SDS011;2377;51.734;8.950;2024-03-02T02:10:52;14.73;;;10.40;;
4726;SDS011;2377;51.734;8.950;2024-03-02T02:13:21;13.93;;;10.67;;
4726;SDS011;2377;51.734;8.950;2024-03-02T02:15:48;15.90;;;11.23;;
4726;SDS011;2377;51.734;8.950;2024-03-02T02:18:18;14.90;;;11.00;;
4726;SDS011;2377;51.734;8.950;2024-03-02T02:20:45;16.17;;;10.73;;
4726;SDS011;2377;51.734;8.950;2024-03-02T02:23:16;18.07;;;12.30;;
4726;SDS011;2377;51.734;8.950;2024-03-02T02:25:43;14.50;;;11.00;;
4726;SDS011;2377;51.734;8.950;2024-03-02T02:28:10;15.83;;;11.40;;
4726;SDS011;2377;51.734;8.950;2024-03-02T02:30:37;15.70;;;12.20;;
4726;SDS011;2377;51.734;8.950;2024-03-02T02:33:04;15.00;;;11.07;;
4726;SDS011;2377;51.734;8.950;2024-03-02T02:35:32;18.80;;;12.27;;
4726;SDS011;2377;51.734;8.950;2024-03-02T02:37:59;16.73;;;12.80;;
4726;SDS011;2377;51.734;8.950;2024-03-02T02:40:30;16.57;;;12.17;;
4726;SDS011;2377;51.734;8.950;2024-03-02T02:42:58;19.60;;;13.60;;
4726;SDS011;2377;51.734;8.950;2024-03-02T02:45:26;16.70;;;11.47;;
4726;SDS011;2377;51.734;8.950;2024-03-02T02:47:54;17.47;;;12.73;;
4726;SDS011;2377;51.734;8.950;2024-03-02T02:50:21;20.20;;;14.03;;
4726;SDS011;2377;51.734;8.950;2024-03-02T02:52:50;17.00;;;12.23;;
4726;SDS011;2377;51.734;8.950;2024-03-02T02:55:17;23.07;;;12.90;;
4726;SDS011;2377;51.734;8.950;2024-03-02T02:57:47;17.17;;;12.87;;
4726;SDS011;2377;51.734;8.950;2024-03-02T03:00:14;16.50;;;11.80;;
4726;SDS011;2377;51.734;8.950;2024-03-02T03:02:46;17.30;;;12.60;;
4726;SDS011;2377;51.734;8.950;2024-03-02T03:05:15;17.47;;;12.33;;
4726;SDS011;2377;51.734;8.950;2024-03-02T03:07:43;18.80;;;12.97;;
4726;SDS011;2377;51.734;8.950;2024-03-02T03:10:10;18.20;;;13.00;;
4726;SDS011;2377;51.734;8.950;2024-03-02T03:12:39;17.60;;;12.40;;
4726;SDS011;2377;51.734;8.950;2024-03-02T03:15:09;18.90;;;12.80;;
4726;SDS011;2377;51.734;8.950;2024-03-02T03:17:37;17.27;;;11.90;;
4726;SDS011;2377;51.734;8.950;2024-03-02T03:20:05;16.03;;;12.30;;
4726;SDS011;2377;51.734;8.950;2024-03-02T03:22:35;17.73;;;12.17;;
4726;SDS011;2377;51.734;8.950;2024-03-02T03:25:03;19.20;;;13.93;;
4726;SDS011;2377;51.734;8.950;2024-03-02T03:27:33;17.40;;;12.50;;
4726;SDS011;2377;51.734;8.950;2024-03-02T03:30:02;24.50;;;14.50;;
4726;SDS011;2377;51.734;8.950;2024-03-02T03:32:32;20.37;;;13.10;;
4726;SDS011;2377;51.734;8.950;2024-03-02T03:35:00;21.87;;;13.23;;
4726;SDS011;2377;51.734;8.950;2024-03-02T03:37:27;20.03;;;12.70;;
4726;SDS011;2377;51.734;8.950;2024-03-02T03:40:00;14.93;;;11.10;;
4726;SDS011;2377;51.734;8.950;2024-03-02T03:42:32;18.93;;;12.60;;
4726;SDS011;2377;51.734;8.950;2024-03-02T03:45:00;20.07;;;13.70;;
4726;SDS011;2377;51.734;8.950;2024-03-02T03:47:28;20.60;;;13.30;;
4726;SDS011;2377;51.734;8.950;2024-03-02T03:50:02;18.50;;;12.77;;
4726;SDS011;2377;51.734;8.950;2024-03-02T03:52:32;18.20;;;12.23;;
4726;SDS011;2377;51.734;8.950;2024-03-02T03:55:01;16.83;;;12.27;;
4726;SDS011;2377;51.734;8.950;2024-03-02T03:57:29;17.30;;;11.27;;
4726;SDS011;2377;51.734;8.950;2024-03-02T03:59:56;16.63;;;11.30;;
4726;SDS011;2377;51.734;8.950;2024-03-02T04:02:23;18.40;;;12.87;;
4726;SDS011;2377;51.734;8.950;2024-03-02T04:04:52;18.80;;;12.93;;
4726;SDS011;2377;51.734;8.950;2024-03-02T04:07:19;17.13;;;11.50;;
4726;SDS011;2377;51.734;8.950;2024-03-02T04:09:46;18.00;;;11.93;;
4726;SDS011;2377;51.734;8.950;2024-03-02T04:12:13;17.97;;;10.97;;
4726;SDS011;2377;51.734;8.950;2024-03-02T04:14:43;16.70;;;11.40;;
4726;SDS011;2377;51.734;8.950;2024-03-02T04:17:10;18.77;;;12.30;;
4726;SDS011;2377;51.734;8.950;2024-03-02T04:19:38;19.37;;;12.47;;
4726;SDS011;2377;51.734;8.950;2024-03-02T04:22:06;19.43;;;13.50;;
4726;SDS011;2377;51.734;8.950;2024-03-02T04:24:34;18.53;;;12.70;;
4726;SDS011;2377;51.734;8.950;2024-03-02T04:27:01;21.23;;;13.60;;
4726;SDS011;2377;51.734;8.950;2024-03-02T04:29:32;25.17;;;16.33;;
4726;SDS011;2377;51.734;8.950;2024-03-02T04:32:01;19.13;;;11.83;;
4726;SDS011;2377;51.734;8.950;2024-03-02T04:34:28;21.67;;;14.43;;
4726;SDS011;2377;51.734;8.950;2024-03-02T04:36:57;21.43;;;14.30;;
4726;SDS011;2377;51.734;8.950;2024-03-02T04:39:25;24.73;;;15.73;;
4726;SDS011;2377;51.734;8.950;2024-03-02T04:41:52;23.27;;;14.50;;
4726;SDS011;2377;51.734;8.950;2024-03-02T04:44:21;21.43;;;14.53;;
4726;SDS011;2377;51.734;8.950;2024-03-02T04:46:48;26.20;;;15.97;;
4726;SDS011;2377;51.734;8.950;2024-03-02T04:49:16;25.10;;;15.87;;
4726;SDS011;2377;51.734;8.950;2024-03-02T04:51:47;27.37;;;16.70;;
4726;SDS011;2377;51.734;8.950;2024-03-02T04:54:14;23.63;;;14.93;;
4726;SDS011;2377;51.734;8.950;2024-03-02T04:56:44;24.70;;;15.00;;
4726;SDS011;2377;51.734;8.950;2024-03-02T04:59:14;23.80;;;15.13;;
4726;SDS011;2377;51.734;8.950;2024-03-02T05:01:43;25.30;;;16.00;;
4726;SDS011;2377;51.734;8.950;2024-03-02T05:04:11;27.40;;;18.23;;
4726;SDS011;2377;51.734;8.950;2024-03-02T05:06:38;25.70;;;16.50;;
4726;SDS011;2377;51.734;8.950;2024-03-02T05:09:06;22.50;;;15.07;;
4726;SDS011;2377;51.734;8.950;2024-03-02T05:11:36;24.30;;;15.40;;
4726;SDS011;2377;51.734;8.950;2024-03-02T05:14:39;25.97;;;15.83;;
4726;SDS011;2377;51.734;8.950;2024-03-02T05:17:08;25.93;;;16.17;;
4726;SDS011;2377;51.734;8.950;2024-03-02T05:19:36;29.57;;;16.90;;
4726;SDS011;2377;51.734;8.950;2024-03-02T05:22:04;26.30;;;16.03;;
4726;SDS011;2377;51.734;8.950;2024-03-02T05:24:32;31.13;;;17.57;;
4726;SDS011;2377;51.734;8.950;2024-03-02T05:26:59;29.03;;;16.97;;
4726;SDS011;2377;51.734;8.950;2024-03-02T05:29:27;25.33;;;16.70;;
4726;SDS011;2377;51.734;8.950;2024-03-02T05:31:55;27.83;;;16.97;;
4726;SDS011;2377;51.734;8.950;2024-03-02T05:34:22;28.87;;;16.60;;
4726;SDS011;2377;51.734;8.950;2024-03-02T05:36:49;26.33;;;16.27;;
4726;SDS011;2377;51.734;8.950;2024-03-02T05:39:17;32.83;;;17.73;;
4726;SDS011;2377;51.734;8.950;2024-03-02T05:41:44;29.77;;;17.20;;
4726;SDS011;2377;51.734;8.950;2024-03-02T05:44:11;27.90;;;17.40;;
4726;SDS011;2377;51.734;8.950;2024-03-02T05:46:40;29.40;;;18.70;;
4726;SDS011;2377;51.734;8.950;2024-03-02T05:49:11;34.40;;;19.93;;
4726;SDS011;2377;51.734;8.950;2024-03-02T05:51:38;28.03;;;17.87;;
4726;SDS011;2377;51.734;8.950;2024-03-02T05:54:06;27.17;;;17.00;;
4726;SDS011;2377;51.734;8.950;2024-03-02T05:56:34;27.63;;;16.97;;
4726;SDS011;2377;51.734;8.950;2024-03-02T05:59:02;30.17;;;17.63;;
4726;SDS011;2377;51.734;8.950;2024-03-02T06:01:37;29.83;;;17.60;;
4726;SDS011;2377;51.734;8.950;2024-03-02T06:04:08;33.77;;;19.73;;
4726;SDS011;2377;51.734;8.950;2024-03-02T06:06:38;26.40;;;17.23;;
4726;SDS011;2377;51.734;8.950;2024-03-02T06:09:08;31.37;;;19.00;;
4726;SDS011;2377;51.734;8.950;2024-03-02T06:11:37;35.30;;;20.33;;
4726;SDS011;2377;51.734;8.950;2024-03-02T06:14:08;30.17;;;18.10;;
4726;SDS011;2377;51.734;8.950;2024-03-02T06:16:35;36.17;;;20.87;;
4726;SDS011;2377;51.734;8.950;2024-03-02T06:19:02;29.83;;;18.50;;
4726;SDS011;2377;51.734;8.950;2024-03-02T06:21:30;33.30;;;19.00;;
4726;SDS011;2377;51.734;8.950;2024-03-02T06:23:59;32.27;;;20.13;;
4726;SDS011;2377;51.734;8.950;2024-03-02T06:26:26;28.00;;;16.97;;
4726;SDS011;2377;51.734;8.950;2024-03-02T06:28:54;30.37;;;17.10;;
4726;SDS011;2377;51.734;8.950;2024-03-02T06:31:22;31.60;;;19.50;;
4726;SDS011;2377;51.734;8.950;2024-03-02T06:33:50;30.37;;;19.67;;
4726;SDS011;2377;51.734;8.950;2024-03-02T06:36:19;26.23;;;16.57;;
4726;SDS011;2377;51.734;8.950;2024-03-02T06:38:49;32.00;;;18.73;;
4726;SDS011;2377;51.734;8.950;2024-03-02T06:41:19;31.43;;;19.50;;
4726;SDS011;2377;51.734;8.950;2024-03-02T06:43:46;26.93;;;17.00;;
4726;SDS011;2377;51.734;8.950;2024-03-02T06:46:14;36.33;;;18.80;;
4726;SDS011;2377;51.734;8.950;2024-03-02T06:48:42;34.67;;;20.97;;
4726;SDS011;2377;51.734;8.950;2024-03-02T06:51:09;29.20;;;17.80;;
4726;SDS011;2377;51.734;8.950;2024-03-02T06:53:36;29.03;;;18.57;;
4726;SDS011;2377;51.734;8.950;2024-03-02T06:56:03;28.20;;;16.97;;
4726;SDS011;2377;51.734;8.950;2024-03-02T06:58:34;26.00;;;16.50;;
4726;SDS011;2377;51.734;8.950;2024-03-02T07:01:04;29.33;;;17.80;;
4726;SDS011;2377;51.734;8.950;2024-03-02T07:03:32;30.23;;;17.80;;
4726;SDS011;2377;51.734;8.950;2024-03-02T07:05:59;29.10;;;17.60;;
4726;SDS011;2377;51.734;8.950;2024-03-02T07:08:27;29.83;;;18.40;;
4726;SDS011;2377;51.734;8.950;2024-03-02T07:10:55;29.67;;;18.30;;
4726;SDS011;2377;51.734;8.950;2024-03-02T07:13:23;31.50;;;19.40;;
4726;SDS011;2377;51.734;8.950;2024-03-02T07:15:52;30.70;;;18.17;;
4726;SDS011;2377;51.734;8.950;2024-03-02T07:18:49;29.20;;;17.03;;
4726;SDS011;2377;51.734;8.950;2024-03-02T07:21:17;29.30;;;18.80;;
4726;SDS011;2377;51.734;8.950;2024-03-02T07:23:47;29.97;;;17.97;;
4726;SDS011;2377;51.734;8.950;2024-03-02T07:26:15;27.13;;;17.70;;
4726;SDS011;2377;51.734;8.950;2024-03-02T07:28:45;28.40;;;18.67;;
4726;SDS011;2377;51.734;8.950;2024-03-02T07:31:17;26.70;;;17.00;;
4726;SDS011;2377;51.734;8.950;2024-03-02T07:33:44;27.07;;;17.40;;
4726;SDS011;2377;51.734;8.950;2024-03-02T07:36:13;30.50;;;18.50;;
4726;SDS011;2377;51.734;8.950;2024-03-02T07:38:41;30.50;;;18.30;;
4726;SDS011;2377;51.734;8.950;2024-03-02T07:41:11;30.10;;;18.33;;
4726;SDS011;2377;51.734;8.950;2024-03-02T07:43:39;30.63;;;18.33;;
4726;SDS011;2377;51.734;8.950;2024-03-02T07:46:07;29.73;;;19.03;;
4726;SDS011;2377;51.734;8.950;2024-03-02T07:48:36;30.90;;;19.03;;
4726;SDS011;2377;51.734;8.950;2024-03-02T07:51:04;27.67;;;16.90;;
4726;SDS011;2377;51.734;8.950;2024-03-02T07:53:34;27.20;;;18.13;;
4726;SDS011;2377;51.734;8.950;2024-03-02T07:56:02;31.77;;;18.20;;
4726;SDS011;2377;51.734;8.950;2024-03-02T07:58:32;27.97;;;18.23;;
4726;SDS011;2377;51.734;8.950;2024-03-02T08:01:00;33.03;;;18.30;;
4726;SDS011;2377;51.734;8.950;2024-03-02T08:03:28;26.60;;;16.13;;
4726;SDS011;2377;51.734;8.950;2024-03-02T08:06:00;27.70;;;15.63;;
4726;SDS011;2377;51.734;8.950;2024-03-02T08:08:29;30.63;;;19.43;;
4726;SDS011;2377;51.734;8.950;2024-03-02T08:10:56;32.53;;;17.83;;
4726;SDS011;2377;51.734;8.950;2024-03-02T08:13:24;32.43;;;18.13;;
4726;SDS011;2377;51.734;8.950;2024-03-02T08:15:54;29.83;;;17.47;;
4726;SDS011;2377;51.734;8.950;2024-03-02T08:18:22;32.30;;;17.50;;
4726;SDS011;2377;51.734;8.950;2024-03-02T08:20:51;28.50;;;16.07;;
4726;SDS011;2377;51.734;8.950;2024-03-02T08:23:20;28.43;;;17.77;;
4726;SDS011;2377;51.734;8.950;2024-03-02T08:25:47;28.03;;;16.63;;
4726;SDS011;2377;51.734;8.950;2024-03-02T08:28:16;25.33;;;15.77;;
4726;SDS011;2377;51.734;8.950;2024-03-02T08:30:45;28.10;;;16.67;;
4726;SDS011;2377;51.734;8.950;2024-03-02T08:33:12;29.27;;;17.60;;
4726;SDS011;2377;51.734;8.950;2024-03-02T08:35:40;25.10;;;16.00;;
4726;SDS011;2377;51.734;8.950;2024-03-02T08:38:07;26.60;;;16.70;;
4726;SDS011;2377;51.734;8.950;2024-03-02T08:40:38;33.03;;;17.87;;
4726;SDS011;2377;51.734;8.950;2024-03-02T08:43:05;26.73;;;15.10;;
4726;SDS011;2377;51.734;8.950;2024-03-02T08:45:34;22.57;;;14.43;;
4726;SDS011;2377;51.734;8.950;2024-03-02T08:48:02;26.87;;;16.90;;
4726;SDS011;2377;51.734;8.950;2024-03-02T08:50:31;25.80;;;15.93;;
4726;SDS011;2377;51.734;8.950;2024-03-02T08:52:58;25.90;;;15.20;;
4726;SDS011;2377;51.734;8.950;2024-03-02T08:55:26;22.80;;;15.13;;
4726;SDS011;2377;51.734;8.950;2024-03-02T08:57:54;20.90;;;14.70;;
4726;SDS011;2377;51.734;8.950;2024-03-02T09:00:22;24.00;;;15.30;;
4726;SDS011;2377;51.734;8.950;2024-03-02T09:02:52;26.30;;;15.77;;
4726;SDS011;2377;51.734;8.950;2024-03-02T09:05:20;22.90;;;15.10;;
4726;SDS011;2377;51.734;8.950;2024-03-02T09:07:47;22.70;;;14.27;;
4726;SDS011;2377;51.734;8.950;2024-03-02T09:10:15;21.10;;;14.07;;
4726;SDS011;2377;51.734;8.950;2024-03-02T09:12:43;23.13;;;14.30;;
4726;SDS011;2377;51.734;8.950;2024-03-02T09:15:12;20.83;;;13.70;;
4726;SDS011;2377;51.734;8.950;2024-03-02T09:17:39;22.50;;;14.10;;
4726;SDS011;2377;51.734;8.950;2024-03-02T09:20:13;20.50;;;13.27;;
4726;SDS011;2377;51.734;8.950;2024-03-02T09:22:41;21.37;;;13.77;;
4726;SDS011;2377;51.734;8.950;2024-03-02T09:25:09;21.10;;;12.43;;
4726;SDS011;2377;51.734;8.950;2024-03-02T09:27:36;19.87;;;12.93;;
4726;SDS011;2377;51.734;8.950;2024-03-02T09:30:04;20.47;;;13.43;;
4726;SDS011;2377;51.734;8.950;2024-03-02T09:32:36;21.20;;;13.67;;
4726;SDS011;2377;51.734;8.950;2024-03-02T09:35:04;21.33;;;12.60;;
4726;SDS011;2377;51.734;8.950;2024-03-02T09:37:33;18.20;;;12.57;;
4726;SDS011;2377;51.734;8.950;2024-03-02T09:40:01;20.57;;;11.90;;
4726;SDS011;2377;51.734;8.950;2024-03-02T09:42:29;16.93;;;12.00;;
4726;SDS011;2377;51.734;8.950;2024-03-02T09:44:59;16.07;;;11.07;;
4726;SDS011;2377;51.734;8.950;2024-03-02T09:47:27;15.40;;;10.90;;
4726;SDS011;2377;51.734;8.950;2024-03-02T09:49:55;18.57;;;10.93;;
4726;SDS011;2377;51.734;8.950;2024-03-02T09:52:23;18.13;;;11.40;;
4726;SDS011;2377;51.734;8.950;2024-03-02T09:54:52;15.60;;;10.57;;
4726;SDS011;2377;51.734;8.950;2024-03-02T09:57:19;16.87;;;10.27;;
4726;SDS011;2377;51.734;8.950;2024-03-02T09:59:47;15.80;;;10.10;;
4726;SDS011;2377;51.734;8.950;2024-03-02T10:02:14;15.23;;;9.90;;
4726;SDS011;2377;51.734;8.950;2024-03-02T10:04:41;14.30;;;9.60;;
4726;SDS011;2377;51.734;8.950;2024-03-02T10:07:12;14.70;;;10.23;;
4726;SDS011;2377;51.734;8.950;2024-03-02T10:09:40;12.77;;;9.87;;
4726;SDS011;2377;51.734;8.950;2024-03-02T10:12:10;16.30;;;10.00;;
4726;SDS011;2377;51.734;8.950;2024-03-02T10:14:39;15.57;;;9.73;;
4726;SDS011;2377;51.734;8.950;2024-03-02T10:17:07;14.47;;;8.80;;
4726;SDS011;2377;51.734;8.950;2024-03-02T10:19:37;14.23;;;9.40;;
4726;SDS011;2377;51.734;8.950;2024-03-02T10:22:06;16.63;;;10.50;;
4726;SDS011;2377;51.734;8.950;2024-03-02T10:24:36;11.40;;;8.50;;
4726;SDS011;2377;51.734;8.950;2024-03-02T10:27:09;12.50;;;7.87;;
4726;SDS011;2377;51.734;8.950;2024-03-02T10:29:41;12.10;;;8.27;;
4726;SDS011;2377;51.734;8.950;2024-03-02T10:32:11;10.90;;;7.53;;
4726;SDS011;2377;51.734;8.950;2024-03-02T10:34:41;13.07;;;8.40;;
4726;SDS011;2377;51.734;8.950;2024-03-02T10:37:12;14.90;;;8.73;;
4726;SDS011;2377;51.734;8.950;2024-03-02T10:39:46;12.83;;;8.80;;
4726;SDS011;2377;51.734;8.950;2024-03-02T10:42:14;13.23;;;9.20;;
4726;SDS011;2377;51.734;8.950;2024-03-02T10:44:45;17.00;;;9.40;;
4726;SDS011;2377;51.734;8.950;2024-03-02T10:47:14;12.60;;;8.00;;
4726;SDS011;2377;51.734;8.950;2024-03-02T10:49:46;14.13;;;8.87;;
4726;SDS011;2377;51.734;8.950;2024-03-02T10:52:16;11.27;;;8.60;;
4726;SDS011;2377;51.734;8.950;2024-03-02T10:54:44;13.40;;;9.27;;
4726;SDS011;2377;51.734;8.950;2024-03-02T10:57:11;12.77;;;9.07;;
4726;SDS011;2377;51.734;8.950;2024-03-02T10:59:50;12.40;;;8.50;;
4726;SDS011;2377;51.734;8.950;2024-03-02T11:02:20;12.60;;;8.30;;
4726;SDS011;2377;51.734;8.950;2024-03-02T11:04:50;14.07;;;8.93;;
4726;SDS011;2377;51.734;8.950;2024-03-02T11:07:22;13.07;;;8.40;;
4726;SDS011;2377;51.734;8.950;2024-03-02T11:09:56;12.30;;;8.20;;
4726;SDS011;2377;51.734;8.950;2024-03-02T11:12:35;12.87;;;8.63;;
4726;SDS011;2377;51.734;8.950;2024-03-02T11:15:09;11.63;;;8.20;;
4726;SDS011;2377;51.734;8.950;2024-03-02T11:17:43;11.80;;;8.60;;
4726;SDS011;2377;51.734;8.950;2024-03-02T11:20:12;11.20;;;8.20;;
4726;SDS011;2377;51.734;8.950;2024-03-02T11:22:41;12.57;;;8.80;;
4726;SDS011;2377;51.734;8.950;2024-03-02T11:25:23;12.03;;;8.77;;
4726;SDS011;2377;51.734;8.950;2024-03-02T11:28:02;10.27;;;7.87;;
4726;SDS011;2377;51.734;8.950;2024-03-02T11:30:49;11.20;;;8.17;;
4726;SDS011;2377;51.734;8.950;2024-03-02T11:33:24;14.00;;;7.90;;
4726;SDS011;2377;51.734;8.950;2024-03-02T11:35:56;10.80;;;7.67;;
4726;SDS011;2377;51.734;8.950;2024-03-02T11:38:30;10.70;;;7.93;;
4726;SDS011;2377;51.734;8.950;2024-03-02T11:41:00;10.70;;;6.80;;
4726;SDS011;2377;51.734;8.950;2024-03-02T11:43:29;8.20;;;5.80;;
4726;SDS011;2377;51.734;8.950;2024-03-02T11:45:58;10.03;;;6.57;;
4726;SDS011;2377;51.734;8.950;2024-03-02T11:48:30;8.53;;;6.60;;
4726;SDS011;2377;51.734;8.950;2024-03-02T11:50:58;10.40;;;6.20;;
4726;SDS011;2377;51.734;8.950;2024-03-02T11:53:27;13.47;;;6.90;;
4726;SDS011;2377;51.734;8.950;2024-03-02T11:55:55;11.20;;;6.50;;
4726;SDS011;2377;51.734;8.950;2024-03-02T11:58:23;8.37;;;6.20;;
4726;SDS011;2377;51.734;8.950;2024-03-02T12:00:52;9.43;;;7.03;;
4726;SDS011;2377;51.734;8.950;2024-03-02T12:03:22;8.70;;;6.20;;
4726;SDS011;2377;51.734;8.950;2024-03-02T12:05:52;16.27;;;6.53;;
4726;SDS011;2377;51.734;8.950;2024-03-02T12:08:21;7.50;;;5.73;;
4726;SDS011;2377;51.734;8.950;2024-03-02T12:10:55;13.43;;;6.67;;
4726;SDS011;2377;51.734;8.950;2024-03-02T12:13:25;8.60;;;6.10;;
4726;SDS011;2377;51.734;8.950;2024-03-02T12:15:56;6.73;;;5.57;;
4726;SDS011;2377;51.734;8.950;2024-03-02T12:18:23;8.27;;;6.00;;
4726;SDS011;2377;51.734;8.950;2024-03-02T12:20:56;11.13;;;5.47;;
4726;SDS011;2377;51.734;8.950;2024-03-02T12:23:24;6.53;;;4.93;;
4726;SDS011;2377;51.734;8.950;2024-03-02T12:25:53;7.53;;;4.87;;
4726;SDS011;2377;51.734;8.950;2024-03-02T12:28:22;6.20;;;5.00;;
4726;SDS011;2377;51.734;8.950;2024-03-02T12:30:50;7.70;;;5.30;;
4726;SDS011;2377;51.734;8.950;2024-03-02T12:33:19;6.43;;;5.60;;
4726;SDS011;2377;51.734;8.950;2024-03-02T12:35:48;20.10;;;5.90;;
4726;SDS011;2377;51.734;8.950;2024-03-02T12:38:15;5.97;;;4.33;;
4726;SDS011;2377;51.734;8.950;2024-03-02T12:40:43;6.50;;;4.70;;
4726;SDS011;2377;51.734;8.950;2024-03-02T12:43:10;7.53;;;5.43;;
4726;SDS011;2377;51.734;8.950;2024-03-02T12:45:37;7.40;;;4.93;;
4726;SDS011;2377;51.734;8.950;2024-03-02T12:48:06;6.10;;;4.77;;
4726;SDS011;2377;51.734;8.950;2024-03-02T12:50:34;5.40;;;3.90;;
4726;SDS011;2377;51.734;8.950;2024-03-02T12:53:01;3.07;;;2.77;;
4726;SDS011;2377;51.734;8.950;2024-03-02T12:55:28;1.70;;;1.60;;
4726;SDS011;2377;51.734;8.950;2024-03-02T12:57:56;2.93;;;2.03;;
4726;SDS011;2377;51.734;8.950;2024-03-02T13:00:24;2.20;;;1.70;;
4726;SDS011;2377;51.734;8.950;2024-03-02T13:02:52;5.37;;;3.63;;
4726;SDS011;2377;51.734;8.950;2024-03-02T13:05:30;4.27;;;3.47;;
4726;SDS011;2377;51.734;8.950;2024-03-02T13:07:58;6.37;;;4.40;;
4726;SDS011;2377;51.734;8.950;2024-03-02T13:10:27;5.50;;;4.70;;
4726;SDS011;2377;51.734;8.950;2024-03-02T13:12:54;7.23;;;4.57;;
4726;SDS011;2377;51.734;8.950;2024-03-02T13:15:23;5.77;;;4.47;;
4726;SDS011;2377;51.734;8.950;2024-03-02T13:17:51;7.20;;;4.73;;
4726;SDS011;2377;51.734;8.950;2024-03-02T13:20:19;6.43;;;4.43;;
4726;SDS011;2377;51.734;8.950;2024-03-02T13:22:49;6.37;;;4.83;;
4726;SDS011;2377;51.734;8.950;2024-03-02T13:25:17;5.27;;;4.50;;
4726;SDS011;2377;51.734;8.950;2024-03-02T13:27:44;8.60;;;5.20;;
4726;SDS011;2377;51.734;8.950;2024-03-02T13:30:12;6.00;;;4.93;;
4726;SDS011;2377;51.734;8.950;2024-03-02T13:32:39;6.43;;;5.37;;
4726;SDS011;2377;51.734;8.950;2024-03-02T13:35:09;7.17;;;5.47;;
4726;SDS011;2377;51.734;8.950;2024-03-02T13:37:37;6.53;;;4.80;;
4726;SDS011;2377;51.734;8.950;2024-03-02T13:40:14;5.97;;;4.23;;
4726;SDS011;2377;51.734;8.950;2024-03-02T13:42:45;7.90;;;4.70;;
4726;SDS011;2377;51.734;8.950;2024-03-02T13:45:15;5.20;;;4.57;;
4726;SDS011;2377;51.734;8.950;2024-03-02T13:47:43;7.23;;;5.23;;
4726;SDS011;2377;51.734;8.950;2024-03-02T13:50:12;6.50;;;4.40;;
4726;SDS011;2377;51.734;8.950;2024-03-02T13:52:39;6.37;;;4.60;;
4726;SDS011;2377;51.734;8.950;2024-03-02T13:55:07;4.83;;;3.97;;
4726;SDS011;2377;51.734;8.950;2024-03-02T13:57:36;6.03;;;4.87;;
4726;SDS011;2377;51.734;8.950;2024-03-02T14:00:05;4.73;;;4.20;;
4726;SDS011;2377;51.734;8.950;2024-03-02T14:02:35;11.23;;;3.60;;
4726;SDS011;2377;51.734;8.950;2024-03-02T14:05:03;5.00;;;4.30;;
4726;SDS011;2377;51.734;8.950;2024-03-02T14:07:31;6.27;;;4.20;;
4726;SDS011;2377;51.734;8.950;2024-03-02T14:09:58;5.43;;;4.20;;
4726;SDS011;2377;51.734;8.950;2024-03-02T14:12:26;4.77;;;3.83;;
4726;SDS011;2377;51.734;8.950;2024-03-02T14:14:53;3.90;;;3.40;;
4726;SDS011;2377;51.734;8.950;2024-03-02T14:17:23;4.70;;;3.67;;
4726;SDS011;2377;51.734;8.950;2024-03-02T14:19:50;4.80;;;4.10;;
4726;SDS011;2377;51.734;8.950;2024-03-02T14:22:18;4.87;;;3.90;;
4726;SDS011;2377;51.734;8.950;2024-03-02T14:24:48;6.30;;;4.33;;
4726;SDS011;2377;51.734;8.950;2024-03-02T14:27:15;5.17;;;3.67;;
4726;SDS011;2377;51.734;8.950;2024-03-02T14:29:44;5.20;;;3.90;;
4726;SDS011;2377;51.734;8.950;2024-03-02T14:32:11;5.57;;;4.00;;
4726;SDS011;2377;51.734;8.950;2024-03-02T14:34:38;5.80;;;4.00;;
4726;SDS011;2377;51.734;8.950;2024-03-02T14:37:05;6.97;;;3.73;;
4726;SDS011;2377;51.734;8.950;2024-03-02T14:39:33;5.57;;;3.50;;
4726;SDS011;2377;51.734;8.950;2024-03-02T14:42:01;5.13;;;3.70;;
4726;SDS011;2377;51.734;8.950;2024-03-02T14:44:29;7.80;;;3.97;;
4726;SDS011;2377;51.734;8.950;2024-03-02T14:46:57;4.17;;;3.20;;
4726;SDS011;2377;51.734;8.950;2024-03-02T14:49:24;4.90;;;3.90;;
4726;SDS011;2377;51.734;8.950;2024-03-02T14:51:59;4.33;;;3.17;;
4726;SDS011;2377;51.734;8.950;2024-03-02T14:54:27;4.93;;;3.73;;
4726;SDS011;2377;51.734;8.950;2024-03-02T14:56:54;4.50;;;3.40;;
4726;SDS011;2377;51.734;8.950;2024-03-02T14:59:22;4.20;;;3.80;;
4726;SDS011;2377;51.734;8.950;2024-03-02T15:01:50;6.37;;;3.37;;
4726;SDS011;2377;51.734;8.950;2024-03-02T15:04:18;3.97;;;3.33;;
4726;SDS011;2377;51.734;8.950;2024-03-02T15:06:47;3.93;;;3.53;;
4726;SDS011;2377;51.734;8.950;2024-03-02T15:09:14;5.90;;;3.60;;